sensor_id;sensor_type;location;lat;lon;timestamp;pressure;altitude;pressure_sealevel;temperature;humidity
38466;BME280;24244;51.950;5.902;2023-08-06T00:00:14;100351.13;;;16.88;88.94
38466;BME280;24244;51.950;5.902;2023-08-06T00:02:42;100342.25;;;16.87;88.88
38466;BME280;24244;51.950;5.902;2023-08-06T00:05:13;100343.09;;;16.88;88.86
38466;BME280;24244;51.950;5.902;2023-08-06T00:07:40;100343.09;;;16.88;88.90
38466;BME280;24244;51.950;5.902;2023-08-06T00:10:07;100348.22;;;16.89;88.91
38466;BME280;24244;51.950;5.902;2023-08-06T00:12:34;100347.41;;;16.89;88.88
38466;BME280;24244;51.950;5.902;2023-08-06T00:15:02;100344.72;;;16.89;88.93
38466;BME280;24244;51.950;5.902;2023-08-06T00:17:33;100345.53;;;16.89;88.91
38466;BME280;24244;51.950;5.902;2023-08-06T00:20:00;100340.16;;;16.89;88.93
38466;BME280;24244;51.950;5.902;2023-08-06T00:22:32;100338.28;;;16.90;88.92
38466;BME280;24244;51.950;5.902;2023-08-06T00:24:59;100330.25;;;16.90;88.99
38466;BME280;24244;51.950;5.902;2023-08-06T00:27:26;100335.63;;;16.90;88.93
38466;BME280;24244;51.950;5.902;2023-08-06T00:29:53;100328.59;;;16.89;89.04
38466;BME280;24244;51.950;5.902;2023-08-06T00:32:20;100330.47;;;16.88;89.16
38466;BME280;24244;51.950;5.902;2023-08-06T00:34:48;100331.28;;;16.89;89.15
38466;BME280;24244;51.950;5.902;2023-08-06T00:37:18;100331.28;;;16.89;89.08
38466;BME280;24244;51.950;5.902;2023-08-06T00:39:44;100335.84;;;16.88;89.21
38466;BME280;24244;51.950;5.902;2023-08-06T00:42:11;100328.03;;;16.87;89.17
38466;BME280;24244;51.950;5.902;2023-08-06T00:44:39;100330.72;;;16.87;89.34
38466;BME280;24244;51.950;5.902;2023-08-06T00:47:09;100326.16;;;16.87;89.44
38466;BME280;24244;51.950;5.902;2023-08-06T00:49:36;100333.97;;;16.89;89.38
38466;BME280;24244;51.950;5.902;2023-08-06T00:52:06;100335.63;;;16.90;89.48
38466;BME280;24244;51.950;5.902;2023-08-06T00:54:34;100333.16;;;16.88;89.31
38466;BME280;24244;51.950;5.902;2023-08-06T00:57:02;100333.97;;;16.89;89.52
38466;BME280;24244;51.950;5.902;2023-08-06T00:59:31;100337.72;;;16.88;89.56
38466;BME280;24244;51.950;5.902;2023-08-06T01:01:58;100333.38;;;16.87;89.51
38466;BME280;24244;51.950;5.902;2023-08-06T01:04:25;100336.31;;;16.85;89.61
38466;BME280;24244;51.950;5.902;2023-08-06T01:07:06;100332.81;;;16.84;89.58
38466;BME280;24244;51.950;5.902;2023-08-06T01:09:46;100339.25;;;16.83;89.62
38466;BME280;24244;51.950;5.902;2023-08-06T01:12:25;100338.66;;;16.81;89.85
38466;BME280;24244;51.950;5.902;2023-08-06T01:14:58;100329.78;;;16.81;89.73
38466;BME280;24244;51.950;5.902;2023-08-06T01:17:28;100328.97;;;16.80;89.56
38466;BME280;24244;51.950;5.902;2023-08-06T01:19:56;100321.16;;;16.79;89.81
38466;BME280;24244;51.950;5.902;2023-08-06T01:22:24;100330.03;;;16.79;89.72
38466;BME280;24244;51.950;5.902;2023-08-06T01:24:51;100324.06;;;16.77;89.78
38466;BME280;24244;51.950;5.902;2023-08-06T01:27:26;100328.63;;;16.77;89.79
38466;BME280;24244;51.950;5.902;2023-08-06T01:30:03;100316.50;;;16.74;89.81
38466;BME280;24244;51.950;5.902;2023-08-06T01:32:32;100318.38;;;16.74;89.99
38466;BME280;24244;51.950;5.902;2023-08-06T01:35:05;100319.19;;;16.74;89.94
38466;BME280;24244;51.950;5.902;2023-08-06T01:37:34;100320.25;;;16.73;89.94
38466;BME280;24244;51.950;5.902;2023-08-06T01:40:01;100317.56;;;16.73;90.15
38466;BME280;24244;51.950;5.902;2023-08-06T01:42:27;100312.41;;;16.72;90.06
38466;BME280;24244;51.950;5.902;2023-08-06T01:44:54;100318.59;;;16.72;90.13
38466;BME280;24244;51.950;5.902;2023-08-06T01:47:22;100313.25;;;16.72;90.14
38466;BME280;24244;51.950;5.902;2023-08-06T01:49:49;100316.16;;;16.71;90.17
38466;BME280;24244;51.950;5.902;2023-08-06T01:52:16;100314.50;;;16.70;90.13
38466;BME280;24244;51.950;5.902;2023-08-06T01:54:45;100314.50;;;16.70;90.43
38466;BME280;24244;51.950;5.902;2023-08-06T01:57:13;100313.47;;;16.71;90.16
38466;BME280;24244;51.950;5.902;2023-08-06T01:59:40;100316.97;;;16.71;90.29
38466;BME280;24244;51.950;5.902;2023-08-06T02:02:07;100314.06;;;16.73;90.11
38466;BME280;24244;51.950;5.902;2023-08-06T02:04:34;100314.06;;;16.73;90.34
38466;BME280;24244;51.950;5.902;2023-08-06T02:07:01;100308.69;;;16.73;90.34
38466;BME280;24244;51.950;5.902;2023-08-06T02:09:28;100306.81;;;16.73;90.18
38466;BME280;24244;51.950;5.902;2023-08-06T02:11:56;100308.69;;;16.73;90.27
38466;BME280;24244;51.950;5.902;2023-08-06T02:14:23;100304.13;;;16.73;90.45
38466;BME280;24244;51.950;5.902;2023-08-06T02:16:50;100310.31;;;16.74;90.41
38466;BME280;24244;51.950;5.902;2023-08-06T02:19:17;100314.06;;;16.73;90.33
38466;BME280;24244;51.950;5.902;2023-08-06T02:21:44;100308.69;;;16.73;90.34
38466;BME280;24244;51.950;5.902;2023-08-06T02:24:11;100307.63;;;16.74;90.40
38466;BME280;24244;51.950;5.902;2023-08-06T02:26:41;100304.13;;;16.73;90.53
38466;BME280;24244;51.950;5.902;2023-08-06T02:29:19;100295.84;;;16.75;90.35
38466;BME280;24244;51.950;5.902;2023-08-06T02:31:45;100299.00;;;16.72;90.51
38466;BME280;24244;51.950;5.902;2023-08-06T02:34:12;100300.88;;;16.71;90.53
38466;BME280;24244;51.950;5.902;2023-08-06T02:36:39;100296.53;;;16.70;90.43
38466;BME280;24244;51.950;5.902;2023-08-06T02:39:09;100291.19;;;16.70;90.47
38466;BME280;24244;51.950;5.902;2023-08-06T02:41:36;100299.22;;;16.70;90.63
38466;BME280;24244;51.950;5.902;2023-08-06T02:44:03;100300.03;;;16.71;90.56
38466;BME280;24244;51.950;5.902;2023-08-06T02:46:31;100290.13;;;16.71;90.55
38466;BME280;24244;51.950;5.902;2023-08-06T02:48:58;100294.44;;;16.72;90.53
38466;BME280;24244;51.950;5.902;2023-08-06T02:51:25;100281.03;;;16.72;90.49
38466;BME280;24244;51.950;5.902;2023-08-06T02:53:52;100281.84;;;16.73;90.75
38466;BME280;24244;51.950;5.902;2023-08-06T02:56:18;100283.72;;;16.72;90.51
38466;BME280;24244;51.950;5.902;2023-08-06T02:58:45;100285.56;;;16.72;90.52
38466;BME280;24244;51.950;5.902;2023-08-06T03:01:12;100278.34;;;16.72;90.68
38466;BME280;24244;51.950;5.902;2023-08-06T03:03:40;100283.47;;;16.74;90.80
38466;BME280;24244;51.950;5.902;2023-08-06T03:06:07;100280.78;;;16.74;90.68
38466;BME280;24244;51.950;5.902;2023-08-06T03:08:34;100283.47;;;16.74;90.90
38466;BME280;24244;51.950;5.902;2023-08-06T03:11:01;100284.31;;;16.74;90.78
38466;BME280;24244;51.950;5.902;2023-08-06T03:13:28;100278.94;;;16.74;90.69
38466;BME280;24244;51.950;5.902;2023-08-06T03:15:58;100278.13;;;16.74;90.95
38466;BME280;24244;51.950;5.902;2023-08-06T03:18:25;100274.63;;;16.73;90.72
38466;BME280;24244;51.950;5.902;2023-08-06T03:20:54;100273.56;;;16.74;91.15
38466;BME280;24244;51.950;5.902;2023-08-06T03:23:21;100271.13;;;16.73;90.97
38466;BME280;24244;51.950;5.902;2023-08-06T03:25:48;100275.44;;;16.74;90.95
38466;BME280;24244;51.950;5.902;2023-08-06T03:28:15;100272.75;;;16.74;91.01
38466;BME280;24244;51.950;5.902;2023-08-06T03:30:42;100276.25;;;16.74;91.04
38466;BME280;24244;51.950;5.902;2023-08-06T03:33:09;100269.84;;;16.75;90.98
38466;BME280;24244;51.950;5.902;2023-08-06T03:35:35;100268.78;;;16.76;91.16
38466;BME280;24244;51.950;5.902;2023-08-06T03:38:03;100273.06;;;16.77;90.88
38466;BME280;24244;51.950;5.902;2023-08-06T03:40:30;100275.75;;;16.77;90.96
38466;BME280;24244;51.950;5.902;2023-08-06T03:42:57;100277.63;;;16.77;90.75
38466;BME280;24244;51.950;5.902;2023-08-06T03:45:24;100270.38;;;16.77;90.98
38466;BME280;24244;51.950;5.902;2023-08-06T03:47:51;100274.16;;;16.76;91.05
38466;BME280;24244;51.950;5.902;2023-08-06T03:50:19;100268.53;;;16.78;90.89
38466;BME280;24244;51.950;5.902;2023-08-06T03:52:46;100269.34;;;16.78;90.93
38466;BME280;24244;51.950;5.902;2023-08-06T03:55:17;100267.69;;;16.77;91.00
38466;BME280;24244;51.950;5.902;2023-08-06T03:57:44;100266.88;;;16.77;90.98
38466;BME280;24244;51.950;5.902;2023-08-06T04:00:11;100268.53;;;16.78;91.06
38466;BME280;24244;51.950;5.902;2023-08-06T04:02:39;100267.69;;;16.77;91.21
38466;BME280;24244;51.950;5.902;2023-08-06T04:05:06;100270.38;;;16.77;91.11
38466;BME280;24244;51.950;5.902;2023-08-06T04:07:33;100266.66;;;16.78;91.26
38466;BME280;24244;51.950;5.902;2023-08-06T04:10:01;100277.38;;;16.78;91.07
38466;BME280;24244;51.950;5.902;2023-08-06T04:12:30;100265.84;;;16.78;91.05
38466;BME280;24244;51.950;5.902;2023-08-06T04:14:58;100269.34;;;16.78;91.15
38466;BME280;24244;51.950;5.902;2023-08-06T04:17:25;100270.38;;;16.77;91.34
38466;BME280;24244;51.950;5.902;2023-08-06T04:19:53;100272.03;;;16.78;91.25
38466;BME280;24244;51.950;5.902;2023-08-06T04:22:21;100272.03;;;16.78;91.26
38466;BME280;24244;51.950;5.902;2023-08-06T04:24:48;100272.03;;;16.78;91.33
38466;BME280;24244;51.950;5.902;2023-08-06T04:27:16;100269.91;;;16.80;91.24
38466;BME280;24244;51.950;5.902;2023-08-06T04:29:44;100275.28;;;16.80;91.23
38466;BME280;24244;51.950;5.902;2023-08-06T04:32:11;100276.94;;;16.81;91.25
38466;BME280;24244;51.950;5.902;2023-08-06T04:34:39;100282.28;;;16.81;91.17
38466;BME280;24244;51.950;5.902;2023-08-06T04:37:05;100283.09;;;16.82;91.40
38466;BME280;24244;51.950;5.902;2023-08-06T04:39:32;100278.28;;;16.84;91.30
38466;BME280;24244;51.950;5.902;2023-08-06T04:41:59;100279.13;;;16.84;91.18
38466;BME280;24244;51.950;5.902;2023-08-06T04:44:26;100279.13;;;16.84;91.41
38466;BME280;24244;51.950;5.902;2023-08-06T04:46:54;100284.47;;;16.84;91.22
38466;BME280;24244;51.950;5.902;2023-08-06T04:49:21;100286.94;;;16.86;91.37
38466;BME280;24244;51.950;5.902;2023-08-06T04:51:48;100286.94;;;16.86;91.49
38466;BME280;24244;51.950;5.902;2023-08-06T04:54:15;100284.25;;;16.86;91.30
38466;BME280;24244;51.950;5.902;2023-08-06T04:56:41;100294.75;;;16.88;91.40
38466;BME280;24244;51.950;5.902;2023-08-06T04:59:08;100289.38;;;16.88;91.35
38466;BME280;24244;51.950;5.902;2023-08-06T05:01:35;100297.44;;;16.88;91.44
38466;BME280;24244;51.950;5.902;2023-08-06T05:04:03;100296.38;;;16.89;91.38
38466;BME280;24244;51.950;5.902;2023-08-06T05:06:30;100299.06;;;16.89;91.53
38466;BME280;24244;51.950;5.902;2023-08-06T05:08:57;100295.56;;;16.88;91.59
38466;BME280;24244;51.950;5.902;2023-08-06T05:11:24;100287.28;;;16.90;91.40
38466;BME280;24244;51.950;5.902;2023-08-06T05:13:51;100291.34;;;16.92;91.45
38466;BME280;24244;51.950;5.902;2023-08-06T05:16:18;100293.78;;;16.94;91.69
38466;BME280;24244;51.950;5.902;2023-08-06T05:18:44;100300.56;;;16.96;91.19
38466;BME280;24244;51.950;5.902;2023-08-06T05:21:13;100299.53;;;16.97;91.35
38466;BME280;24244;51.950;5.902;2023-08-06T05:23:40;100298.22;;;17.00;91.40
38466;BME280;24244;51.950;5.902;2023-08-06T05:26:06;100306.03;;;17.01;91.53
38466;BME280;24244;51.950;5.902;2023-08-06T05:28:34;100305.78;;;17.03;91.61
38466;BME280;24244;51.950;5.902;2023-08-06T05:31:03;100304.16;;;17.02;91.48
38466;BME280;24244;51.950;5.902;2023-08-06T05:33:29;100310.34;;;17.02;91.63
38466;BME280;24244;51.950;5.902;2023-08-06T05:35:56;100306.84;;;17.02;91.62
38466;BME280;24244;51.950;5.902;2023-08-06T05:38:26;100315.13;;;17.00;91.73
38466;BME280;24244;51.950;5.902;2023-08-06T05:40:53;100326.94;;;16.99;91.82
38466;BME280;24244;51.950;5.902;2023-08-06T05:43:19;100328.31;;;17.02;91.87
38466;BME280;24244;51.950;5.902;2023-08-06T05:45:48;100325.41;;;17.03;91.76
38466;BME280;24244;51.950;5.902;2023-08-06T05:48:16;100329.97;;;17.03;91.60
38466;BME280;24244;51.950;5.902;2023-08-06T05:50:42;100335.81;;;17.00;91.96
38466;BME280;24244;51.950;5.902;2023-08-06T05:53:09;100336.03;;;16.98;92.06
38466;BME280;24244;51.950;5.902;2023-08-06T05:55:38;100342.22;;;16.99;92.13
38466;BME280;24244;51.950;5.902;2023-08-06T05:58:05;100340.84;;;16.96;92.02
38466;BME280;24244;51.950;5.902;2023-08-06T06:00:32;100346.22;;;16.96;92.14
38466;BME280;24244;51.950;5.902;2023-08-06T06:02:58;100343.84;;;17.00;92.26
38466;BME280;24244;51.950;5.902;2023-08-06T06:05:25;100343.63;;;17.01;92.28
38466;BME280;24244;51.950;5.902;2023-08-06T06:07:52;100349.22;;;17.00;91.88
38466;BME280;24244;51.950;5.902;2023-08-06T06:10:19;100351.34;;;16.98;92.01
38466;BME280;24244;51.950;5.902;2023-08-06T06:12:47;100351.59;;;16.96;92.27
38466;BME280;24244;51.950;5.902;2023-08-06T06:15:14;100356.97;;;16.96;92.09
38466;BME280;24244;51.950;5.902;2023-08-06T06:17:40;100357.09;;;16.90;92.13
38466;BME280;24244;51.950;5.902;2023-08-06T06:20:09;100362.69;;;16.88;92.43
38466;BME280;24244;51.950;5.902;2023-08-06T06:22:36;100367.25;;;16.88;92.44
38466;BME280;24244;51.950;5.902;2023-08-06T06:25:03;100369.94;;;16.88;92.28
38466;BME280;24244;51.950;5.902;2023-08-06T06:27:30;100369.09;;;16.87;92.30
38466;BME280;24244;51.950;5.902;2023-08-06T06:29:58;100371.56;;;16.89;92.46
38466;BME280;24244;51.950;5.902;2023-08-06T06:32:25;100374.03;;;16.90;92.49
38466;BME280;24244;51.950;5.902;2023-08-06T06:34:52;100384.50;;;16.92;92.39
38466;BME280;24244;51.950;5.902;2023-08-06T06:37:18;100381.25;;;16.90;92.55
38466;BME280;24244;51.950;5.902;2023-08-06T06:39:45;100386.84;;;16.88;92.56
38466;BME280;24244;51.950;5.902;2023-08-06T06:42:12;100385.69;;;16.84;92.59
38466;BME280;24244;51.950;5.902;2023-08-06T06:44:41;100395.03;;;16.81;92.84
38466;BME280;24244;51.950;5.902;2023-08-06T06:47:09;100392.34;;;16.81;92.81
38466;BME280;24244;51.950;5.902;2023-08-06T06:49:36;100392.13;;;16.83;92.97
38466;BME280;24244;51.950;5.902;2023-08-06T06:52:04;100398.88;;;16.86;92.68
38466;BME280;24244;51.950;5.902;2023-08-06T06:54:31;100394.53;;;16.84;92.67
38466;BME280;24244;51.950;5.902;2023-08-06T06:56:58;100393.28;;;16.87;92.44
38466;BME280;24244;51.950;5.902;2023-08-06T06:59:24;100399.91;;;16.84;92.65
38466;BME280;24244;51.950;5.902;2023-08-06T07:01:51;100393.72;;;16.84;92.74
38466;BME280;24244;51.950;5.902;2023-08-06T07:04:20;100402.59;;;16.84;92.84
38466;BME280;24244;51.950;5.902;2023-08-06T07:06:47;100399.34;;;16.82;92.71
38466;BME280;24244;51.950;5.902;2023-08-06T07:09:14;100409.03;;;16.83;92.80
38466;BME280;24244;51.950;5.902;2023-08-06T07:11:41;100397.50;;;16.83;92.89
38466;BME280;24244;51.950;5.902;2023-08-06T07:14:10;100403.41;;;16.85;92.94
38466;BME280;24244;51.950;5.902;2023-08-06T07:16:39;100401.78;;;16.84;92.60
38466;BME280;24244;51.950;5.902;2023-08-06T07:19:05;100407.97;;;16.84;92.58
38466;BME280;24244;51.950;5.902;2023-08-06T07:21:33;100409.84;;;16.84;93.01
38466;BME280;24244;51.950;5.902;2023-08-06T07:24:00;100408.56;;;16.87;92.85
38466;BME280;24244;51.950;5.902;2023-08-06T07:26:27;100409.16;;;16.89;92.71
38466;BME280;24244;51.950;5.902;2023-08-06T07:28:54;100411.00;;;16.88;92.67
38466;BME280;24244;51.950;5.902;2023-08-06T07:31:21;100414.53;;;16.89;92.80
38466;BME280;24244;51.950;5.902;2023-08-06T07:33:48;100410.78;;;16.90;92.80
38466;BME280;24244;51.950;5.902;2023-08-06T07:36:14;100412.41;;;16.91;92.66
38466;BME280;24244;51.950;5.902;2023-08-06T07:38:43;100420.22;;;16.92;92.82
38466;BME280;24244;51.950;5.902;2023-08-06T07:41:10;100421.63;;;16.95;92.90
38466;BME280;24244;51.950;5.902;2023-08-06T07:43:37;100417.06;;;16.95;92.68
38466;BME280;24244;51.950;5.902;2023-08-06T07:46:03;100425.94;;;16.96;92.76
38466;BME280;24244;51.950;5.902;2023-08-06T07:48:30;100427.59;;;16.97;92.79
38466;BME280;24244;51.950;5.902;2023-08-06T07:50:57;100426.75;;;16.96;92.95
38466;BME280;24244;51.950;5.902;2023-08-06T07:53:25;100424.31;;;16.95;92.78
38466;BME280;24244;51.950;5.902;2023-08-06T07:55:55;100427.00;;;16.95;92.99
38466;BME280;24244;51.950;5.902;2023-08-06T07:58:25;100432.13;;;16.96;92.93
38466;BME280;24244;51.950;5.902;2023-08-06T08:00:52;100423.84;;;16.98;93.20
38466;BME280;24244;51.950;5.902;2023-08-06T08:03:19;100423.34;;;17.01;92.88
38466;BME280;24244;51.950;5.902;2023-08-06T08:05:48;100426.88;;;17.01;93.01
38466;BME280;24244;51.950;5.902;2023-08-06T08:08:15;100427.22;;;17.05;93.17
38466;BME280;24244;51.950;5.902;2023-08-06T08:10:42;100417.03;;;17.07;92.95
38466;BME280;24244;51.950;5.902;2023-08-06T08:13:10;100415.53;;;17.11;92.87
38466;BME280;24244;51.950;5.902;2023-08-06T08:15:37;100422.78;;;17.10;93.06
38466;BME280;24244;51.950;5.902;2023-08-06T08:18:04;100424.41;;;17.11;93.01
38466;BME280;24244;51.950;5.902;2023-08-06T08:20:31;100429.50;;;17.13;92.96
38466;BME280;24244;51.950;5.902;2023-08-06T08:22:59;100432.19;;;17.13;92.87
38466;BME280;24244;51.950;5.902;2023-08-06T08:25:27;100427.66;;;17.13;92.99
38466;BME280;24244;51.950;5.902;2023-08-06T08:27:57;100429.88;;;17.16;93.02
38466;BME280;24244;51.950;5.902;2023-08-06T08:30:25;100423.44;;;17.17;92.94
38466;BME280;24244;51.950;5.902;2023-08-06T08:32:53;100426.13;;;17.17;92.88
38466;BME280;24244;51.950;5.902;2023-08-06T08:35:20;100433.38;;;17.17;92.73
38466;BME280;24244;51.950;5.902;2023-08-06T08:37:49;100433.16;;;17.18;93.03
38466;BME280;24244;51.950;5.902;2023-08-06T08:40:17;100429.38;;;17.19;92.84
38466;BME280;24244;51.950;5.902;2023-08-06T08:42:47;100431.59;;;17.22;93.12
38466;BME280;24244;51.950;5.902;2023-08-06T08:45:14;100430.88;;;17.27;92.88
38466;BME280;24244;51.950;5.902;2023-08-06T08:48:00;100427.50;;;17.32;93.13
38466;BME280;24244;51.950;5.902;2023-08-06T08:50:28;100435.41;;;17.38;92.97
38466;BME280;24244;51.950;5.902;2023-08-06T08:52:55;100434.94;;;17.41;93.00
38466;BME280;24244;51.950;5.902;2023-08-06T08:55:22;100430.97;;;17.44;92.77
38466;BME280;24244;51.950;5.902;2023-08-06T08:57:50;100434.47;;;17.44;92.75
38466;BME280;24244;51.950;5.902;2023-08-06T09:00:17;100442.59;;;17.49;92.74
38466;BME280;24244;51.950;5.902;2023-08-06T09:02:46;100434.31;;;17.51;92.85
38466;BME280;24244;51.950;5.902;2023-08-06T09:05:16;100430.59;;;17.52;92.71
38466;BME280;24244;51.950;5.902;2023-08-06T09:07:48;100437.34;;;17.54;92.94
38466;BME280;24244;51.950;5.902;2023-08-06T09:10:16;100441.19;;;17.58;92.97
38466;BME280;24244;51.950;5.902;2023-08-06T09:12:45;100441.53;;;17.62;92.78
38466;BME280;24244;51.950;5.902;2023-08-06T09:15:13;100441.06;;;17.65;92.66
38466;BME280;24244;51.950;5.902;2023-08-06T09:17:40;100444.91;;;17.69;92.61
38466;BME280;24244;51.950;5.902;2023-08-06T09:20:11;100454.94;;;17.74;92.53
38466;BME280;24244;51.950;5.902;2023-08-06T09:22:40;100450.16;;;17.76;92.51
38466;BME280;24244;51.950;5.902;2023-08-06T09:25:08;100449.88;;;17.77;92.37
38466;BME280;24244;51.950;5.902;2023-08-06T09:27:38;100454.44;;;17.77;92.06
38466;BME280;24244;51.950;5.902;2023-08-06T09:30:07;100456.00;;;17.73;92.18
38466;BME280;24244;51.950;5.902;2023-08-06T09:32:47;100459.97;;;17.70;92.09
38466;BME280;24244;51.950;5.902;2023-08-06T09:35:18;100468.84;;;17.71;92.12
38466;BME280;24244;51.950;5.902;2023-08-06T09:37:49;100458.09;;;17.71;92.15
38466;BME280;24244;51.950;5.902;2023-08-06T09:40:26;100461.97;;;17.75;92.14
38466;BME280;24244;51.950;5.902;2023-08-06T09:42:53;100464.16;;;17.78;92.00
38466;BME280;24244;51.950;5.902;2023-08-06T09:45:20;100462.28;;;17.78;91.85
38466;BME280;24244;51.950;5.902;2023-08-06T09:47:49;100468.47;;;17.79;91.78
38466;BME280;24244;51.950;5.902;2023-08-06T09:50:17;100469.75;;;17.76;91.90
38466;BME280;24244;51.950;5.902;2023-08-06T09:52:46;100475.63;;;17.73;91.90
38466;BME280;24244;51.950;5.902;2023-08-06T09:55:14;100474.97;;;17.66;91.90
38466;BME280;24244;51.950;5.902;2023-08-06T09:57:42;100480.25;;;17.61;92.20
38466;BME280;24244;51.950;5.902;2023-08-06T10:00:11;100481.97;;;17.55;92.25
38466;BME280;24244;51.950;5.902;2023-08-06T10:02:38;100477.09;;;17.52;92.34
38466;BME280;24244;51.950;5.902;2023-08-06T10:05:07;100482.69;;;17.51;92.43
38466;BME280;24244;51.950;5.902;2023-08-06T10:07:40;100490.97;;;17.49;92.38
38466;BME280;24244;51.950;5.902;2023-08-06T10:10:13;100483.16;;;17.48;92.57
38466;BME280;24244;51.950;5.902;2023-08-06T10:12:40;100486.09;;;17.46;92.47
38466;BME280;24244;51.950;5.902;2023-08-06T10:15:21;100487.84;;;17.41;92.33
38466;BME280;24244;51.950;5.902;2023-08-06T10:17:51;100494.75;;;17.37;92.79
38466;BME280;24244;51.950;5.902;2023-08-06T10:20:22;100495.81;;;17.36;92.85
38466;BME280;24244;51.950;5.902;2023-08-06T10:23:00;100500.03;;;17.32;92.66
38466;BME280;24244;51.950;5.902;2023-08-06T10:25:31;100511.97;;;17.24;92.72
38466;BME280;24244;51.950;5.902;2023-08-06T10:28:07;100520.72;;;17.08;92.61
38466;BME280;24244;51.950;5.902;2023-08-06T10:30:43;100515.50;;;16.90;92.63
38466;BME280;24244;51.950;5.902;2023-08-06T10:33:39;100528.78;;;16.73;92.49
38466;BME280;24244;51.950;5.902;2023-08-06T10:36:15;100531.81;;;16.65;92.86
38466;BME280;24244;51.950;5.902;2023-08-06T10:38:47;100530.13;;;16.52;92.98
38466;BME280;24244;51.950;5.902;2023-08-06T10:41:16;100526.34;;;16.41;92.87
38466;BME280;24244;51.950;5.902;2023-08-06T10:43:44;100525.56;;;16.41;93.23
38466;BME280;24244;51.950;5.902;2023-08-06T10:46:22;100530.44;;;16.44;93.08
38466;BME280;24244;51.950;5.902;2023-08-06T10:48:51;100531.03;;;16.46;92.77
38466;BME280;24244;51.950;5.902;2023-08-06T10:51:19;100527.31;;;16.47;92.60
38466;BME280;24244;51.950;5.902;2023-08-06T10:53:47;100541.41;;;16.42;92.55
38466;BME280;24244;51.950;5.902;2023-08-06T10:56:17;100536.28;;;16.41;93.03
38466;BME280;24244;51.950;5.902;2023-08-06T10:58:45;100542.91;;;16.38;92.83
38466;BME280;24244;51.950;5.902;2023-08-06T11:01:12;100545.22;;;16.35;92.70
38466;BME280;24244;51.950;5.902;2023-08-06T11:03:42;100553.53;;;16.33;92.74
38466;BME280;24244;51.950;5.902;2023-08-06T11:06:09;100557.03;;;16.34;92.55
38466;BME280;24244;51.950;5.902;2023-08-06T11:08:38;100548.38;;;16.32;92.67
38466;BME280;24244;51.950;5.902;2023-08-06T11:11:08;100559.00;;;16.27;92.69
38466;BME280;24244;51.950;5.902;2023-08-06T11:13:38;100554.91;;;16.24;92.77
38466;BME280;24244;51.950;5.902;2023-08-06T11:16:05;100551.84;;;16.21;92.78
38466;BME280;24244;51.950;5.902;2023-08-06T11:18:33;100557.19;;;16.21;92.69
38466;BME280;24244;51.950;5.902;2023-08-06T11:21:00;100563.03;;;16.18;93.01
38466;BME280;24244;51.950;5.902;2023-08-06T11:23:28;100555.22;;;16.16;93.14
38466;BME280;24244;51.950;5.902;2023-08-06T11:25:56;100559.75;;;16.16;92.91
38466;BME280;24244;51.950;5.902;2023-08-06T11:28:23;100554.38;;;16.16;92.83
38466;BME280;24244;51.950;5.902;2023-08-06T11:30:53;100553.56;;;16.15;92.88
38466;BME280;24244;51.950;5.902;2023-08-06T11:33:23;100566.97;;;16.15;92.88
38466;BME280;24244;51.950;5.902;2023-08-06T11:35:56;100565.34;;;16.14;93.06
38466;BME280;24244;51.950;5.902;2023-08-06T11:38:25;100568.63;;;16.16;92.97
38466;BME280;24244;51.950;5.902;2023-08-06T11:40:52;100567.34;;;16.19;93.05
38466;BME280;24244;51.950;5.902;2023-08-06T11:43:20;100569.44;;;16.17;92.87
38466;BME280;24244;51.950;5.902;2023-08-06T11:45:51;100571.06;;;16.18;93.00
38466;BME280;24244;51.950;5.902;2023-08-06T11:48:21;100577.25;;;16.18;93.08
38466;BME280;24244;51.950;5.902;2023-08-06T11:50:48;100574.81;;;16.17;93.04
38466;BME280;24244;51.950;5.902;2023-08-06T11:53:16;100571.31;;;16.16;93.02
38466;BME280;24244;51.950;5.902;2023-08-06T11:55:44;100576.31;;;16.13;93.25
38466;BME280;24244;51.950;5.902;2023-08-06T11:58:11;100583.28;;;16.14;93.52
38466;BME280;24244;51.950;5.902;2023-08-06T12:00:43;100595.66;;;16.15;93.67
38466;BME280;24244;51.950;5.902;2023-08-06T12:03:31;100596.69;;;16.14;93.62
38466;BME280;24244;51.950;5.902;2023-08-06T12:05:58;100596.69;;;16.14;93.68
38466;BME280;24244;51.950;5.902;2023-08-06T12:08:26;100606.25;;;16.10;93.67
38466;BME280;24244;51.950;5.902;2023-08-06T12:10:56;100608.13;;;16.09;93.90
38466;BME280;24244;51.950;5.902;2023-08-06T12:13:30;100625.84;;;16.10;93.91
38466;BME280;24244;51.950;5.902;2023-08-06T12:16:00;100615.94;;;16.11;93.90
38466;BME280;24244;51.950;5.902;2023-08-06T12:18:30;100628.53;;;16.10;93.86
38466;BME280;24244;51.950;5.902;2023-08-06T12:20:57;100630.38;;;16.10;93.92
38466;BME280;24244;51.950;5.902;2023-08-06T12:23:24;100626.06;;;16.09;93.99
38466;BME280;24244;51.950;5.902;2023-08-06T12:25:54;100628.75;;;16.09;93.87
38466;BME280;24244;51.950;5.902;2023-08-06T12:28:21;100634.09;;;16.09;93.79
38466;BME280;24244;51.950;5.902;2023-08-06T12:30:49;100637.38;;;16.11;93.98
38466;BME280;24244;51.950;5.902;2023-08-06T12:33:18;100638.22;;;16.11;93.77
38466;BME280;24244;51.950;5.902;2023-08-06T12:35:58;100634.94;;;16.09;93.86
38466;BME280;24244;51.950;5.902;2023-08-06T12:38:25;100641.53;;;16.06;93.97
38466;BME280;24244;51.950;5.902;2023-08-06T12:40:53;100646.09;;;16.06;94.02
38466;BME280;24244;51.950;5.902;2023-08-06T12:43:23;100649.38;;;16.08;93.95
38466;BME280;24244;51.950;5.902;2023-08-06T12:45:50;100646.69;;;16.08;93.78
38466;BME280;24244;51.950;5.902;2023-08-06T12:48:21;100653.91;;;16.08;93.98
38466;BME280;24244;51.950;5.902;2023-08-06T12:50:50;100654.94;;;16.06;94.06
38466;BME280;24244;51.950;5.902;2023-08-06T12:53:17;100655.63;;;16.02;93.81
38466;BME280;24244;51.950;5.902;2023-08-06T12:55:43;100653.78;;;16.02;94.01